Time;durP1;ratioP1;P1;durP2;ratioP2;P2;SDS_P1;SDS_P2;PMS_P1;PMS_P2;Temp;Humidity;BMP_temperature;BMP_pressure;BME280_temperature;BME280_humidity;BME280_pressure;Samples;Min_cycle;Max_cycle;Signal;HPM_P1;HPM_P2
2023/09/24 00:07:43;;;;;;;0.13;0.03;;;8.80;99.90;;;;;;25589807;23;20001;-49
2023/09/24 00:17:45;;;;;;;0.22;0.10;;;8.70;99.90;;;;;;25562668;23;20013;-60
2023/09/24 00:27:46;;;;;;;0.22;0.10;;;8.70;99.90;;;;;;25563059;23;20105;-52
2023/09/24 00:37:48;;;;;;;0.30;0.10;;;8.70;99.90;;;;;;25589363;23;20009;-49
2023/09/24 00:47:50;;;;;;;0.40;0.10;;;8.70;99.90;;;;;;25569397;23;20444;-60
2023/09/24 00:57:54;;;;;;;0.47;0.20;;;8.60;99.90;;;;;;25596877;23;20002;-60
2023/09/24 01:07:56;;;;;;;1.50;0.50;;;8.50;99.90;;;;;;25569858;23;20009;-49
2023/09/24 01:18:02;;;;;;;0.88;0.20;;;8.40;99.90;;;;;;25596144;23;20012;-60
2023/09/24 01:28:07;;;;;;;0.63;0.20;;;8.30;99.90;;;;;;25593778;23;20071;-58
2023/09/24 01:38:10;;;;;;;0.73;0.20;;;8.40;99.90;;;;;;25593628;23;20008;-60
2023/09/24 01:48:12;;;;;;;0.20;0.10;;;8.40;99.90;;;;;;25568474;23;20006;-60
2023/09/24 01:58:14;;;;;;;1.95;0.30;;;8.30;99.90;;;;;;25543388;23;20060;-50
2023/09/24 02:08:18;;;;;;;1.67;0.10;;;8.50;99.90;;;;;;25593988;23;20312;-52
2023/09/24 02:18:19;;;;;;;0.70;0.20;;;8.50;99.90;;;;;;25593640;23;20336;-59
2023/09/24 02:28:24;;;;;;;0.20;0.10;;;8.10;99.90;;;;;;25566480;23;20341;-60
2023/09/24 02:38:28;;;;;;;0.40;0.20;;;8.10;99.90;;;;;;25591224;23;20001;-59
2023/09/24 02:48:30;;;;;;;1.17;0.28;;;8.10;99.90;;;;;;25592797;23;20040;-59
2023/09/24 02:58:31;;;;;;;1.52;0.17;;;8.20;99.90;;;;;;25591972;23;20036;-59
2023/09/24 03:08:33;;;;;;;0.90;0.10;;;8.00;99.90;;;;;;25565140;23;20002;-49
2023/09/24 03:18:35;;;;;;;1.10;0.20;;;8.00;99.90;;;;;;25591670;23;20437;-60
2023/09/24 03:28:37;;;;;;;0.40;0.17;;;8.00;99.90;;;;;;25563986;23;20017;-59
2023/09/24 03:38:39;;;;;;;0.32;0.20;;;8.10;99.90;;;;;;25588522;23;20005;-60
2023/09/24 03:48:41;;;;;;;1.23;0.20;;;8.30;99.90;;;;;;25589862;23;20005;-59
2023/09/24 03:58:43;;;;;;;0.22;0.10;;;8.30;99.90;;;;;;25589362;23;20337;-47
2023/09/24 04:08:45;;;;;;;1.10;0.30;;;8.50;99.90;;;;;;25563027;23;20441;-48
2023/09/24 04:18:47;;;;;;;0.20;0.10;;;8.40;99.90;;;;;;25588960;23;20055;-59
2023/09/24 04:28:53;;;;;;;0.40;0.20;;;8.20;99.90;;;;;;25589511;23;20519;-52
2023/09/24 04:38:56;;;;;;;0.43;0.20;;;8.20;99.90;;;;;;25629964;23;20016;-50
2023/09/24 04:48:57;;;;;;;0.40;0.20;;;8.10;99.90;;;;;;25588569;23;20009;-51
2023/09/24 04:59:00;;;;;;;0.52;0.20;;;8.40;99.90;;;;;;25588360;23;20008;-60
2023/09/24 05:09:01;;;;;;;1.27;0.30;;;8.60;99.90;;;;;;25588556;23;20016;-60
2023/09/24 05:19:05;;;;;;;0.50;0.20;;;8.70;99.90;;;;;;25588470;23;20005;-51
2023/09/24 05:29:07;;;;;;;2.05;0.20;;;8.60;99.90;;;;;;25590340;23;20017;-49
2023/09/24 05:39:09;;;;;;;0.77;0.30;;;8.60;99.90;;;;;;25595416;23;20005;-52
2023/09/24 05:49:11;;;;;;;1.05;0.22;;;8.60;99.90;;;;;;25595014;23;20005;-49
2023/09/24 05:59:13;;;;;;;0.50;0.20;;;8.70;99.90;;;;;;25593076;23;20436;-51
2023/09/24 06:09:16;;;;;;;1.88;0.20;;;8.70;99.90;;;;;;25594219;23;20009;-53
2023/09/24 06:19:21;;;;;;;0.50;0.22;;;8.70;99.90;;;;;;25593118;23;20337;-53
2023/09/24 06:29:23;;;;;;;1.70;0.40;;;8.90;99.80;;;;;;25592652;23;20400;-48
2023/09/24 06:39:29;;;;;;;0.25;0.10;;;9.00;99.90;;;;;;25593777;23;20017;-52
2023/09/24 06:49:31;;;;;;;1.98;0.30;;;9.40;99.30;;;;;;25591978;23;20005;-60
2023/09/24 06:59:33;;;;;;;0.90;0.30;;;9.60;99.10;;;;;;25592639;23;20005;-52
2023/09/24 07:09:35;;;;;;;0.43;0.20;;;10.20;99.00;;;;;;25590807;23;20012;-51
2023/09/24 07:19:37;;;;;;;0.80;0.20;;;10.60;97.90;;;;;;25590428;23;20384;-60
2023/09/24 07:29:41;;;;;;;0.70;0.30;;;11.10;97.80;;;;;;25589713;23;20433;-60
2023/09/24 07:39:43;;;;;;;1.15;0.28;;;11.50;97.70;;;;;;25588152;23;20005;-52
2023/09/24 07:49:45;;;;;;;1.88;0.50;;;11.90;96.70;;;;;;25588305;23;20268;-53
2023/09/24 07:59:46;;;;;;;2.45;0.50;;;12.30;95.80;;;;;;25588598;23;20001;-61
2023/09/24 08:09:48;;;;;;;1.33;0.55;;;12.50;96.40;;;;;;25589065;23;20286;-61
2023/09/24 08:19:50;;;;;;;0.73;0.40;;;12.90;95.70;;;;;;25587239;23;20012;-61
2023/09/24 08:29:56;;;;;;;1.33;0.25;;;13.10;95.80;;;;;;25562342;23;20020;-61
2023/09/24 08:40:02;;;;;;;0.50;0.30;;;13.30;95.30;;;;;;25628387;23;20040;-61
2023/09/24 08:50:04;;;;;;;2.30;0.60;;;13.30;94.90;;;;;;25587976;23;20036;-61
2023/09/24 09:00:10;;;;;;;0.68;0.20;;;13.60;94.90;;;;;;25587163;23;20005;-61
2023/09/24 09:10:12;;;;;;;1.00;0.30;;;14.00;92.80;;;;;;25636078;23;20005;-53
2023/09/24 09:20:14;;;;;;;0.88;0.30;;;14.20;93.70;;;;;;25594737;23;20009;-60
2023/09/24 09:30:18;;;;;;;0.40;0.20;;;14.40;93.70;;;;;;25593796;23;20020;-61
2023/09/24 09:40:20;;;;;;;1.35;0.70;;;14.70;93.00;;;;;;25593215;23;20009;-60
2023/09/24 09:50:25;;;;;;;2.35;0.30;;;14.60;95.00;;;;;;25592022;23;20020;-60
2023/09/24 10:00:29;;;;;;;1.92;0.20;;;15.10;92.50;;;;;;25593215;23;20320;-60
2023/09/24 10:10:31;;;;;;;0.98;0.35;;;15.00;92.00;;;;;;25593428;23;20001;-60
2023/09/24 10:20:55;;;;;;;1.45;0.50;;;15.10;92.20;;;;;;25565352;23;20009;-51
2023/09/24 10:31:05;;;;;;;0.88;0.30;;;15.20;92.40;;;;;;25617673;23;20012;-60
2023/09/24 10:41:07;;;;;;;0.50;0.20;;;15.80;93.00;;;;;;25632781;23;20013;-59
2023/09/24 10:51:09;;;;;;;0.40;0.30;;;15.60;91.70;;;;;;25591436;23;20063;-60
2023/09/24 11:01:32;;;;;;;1.85;0.95;;;16.10;92.40;;;;;;25590908;23;20001;-58
2023/09/24 11:11:34;;;;;;;1.20;0.30;;;16.40;90.70;;;;;;25631592;23;20001;-51
2023/09/24 11:21:36;;;;;;;0.68;0.35;;;16.30;91.30;;;;;;25589533;23;20059;-59
2023/09/24 11:31:44;;;;;;;1.83;0.50;;;16.80;92.00;;;;;;25562178;23;20068;-59
2023/09/24 11:41:46;;;;;;;0.57;0.20;;;16.20;90.70;;;;;;25630426;23;20013;-60
2023/09/24 11:51:48;;;;;;;1.05;0.30;;;16.30;90.60;;;;;;25562897;23;20059;-60
2023/09/24 12:01:49;;;;;;;0.43;0.28;;;16.80;90.80;;;;;;25589280;23;20005;-60
2023/09/24 12:11:51;;;;;;;1.15;0.25;;;16.50;89.90;;;;;;25588858;23;20005;-62
2023/09/24 12:21:53;;;;;;;3.78;0.40;;;16.20;90.30;;;;;;25588583;23;20056;-61
2023/09/24 12:31:55;;;;;;;0.40;0.22;;;15.90;89.80;;;;;;25588607;23;20502;-50
2023/09/24 12:41:57;;;;;;;2.15;0.38;;;16.00;90.10;;;;;;25594464;23;20013;-62
2023/09/24 12:51:58;;;;;;;0.50;0.25;;;16.30;90.80;;;;;;25595911;23;20001;-63
2023/09/24 13:02:00;;;;;;;0.60;0.30;;;16.80;91.00;;;;;;25595702;23;20005;-53
2023/09/24 13:12:03;;;;;;;3.00;0.47;;;16.80;91.10;;;;;;25595424;23;20341;-63
2023/09/24 13:22:04;;;;;;;1.27;0.30;;;16.90;89.20;;;;;;25568802;23;20060;-53
2023/09/24 13:32:06;;;;;;;0.77;0.38;;;16.90;90.20;;;;;;25594164;23;20023;-63
2023/09/24 13:42:08;;;;;;;0.68;0.20;;;16.80;91.60;;;;;;25593959;23;20009;-51
2023/09/24 13:52:10;;;;;;;0.57;0.30;;;16.60;90.50;;;;;;25592740;23;20083;-62
2023/09/24 14:02:12;;;;;;;0.60;0.20;;;16.40;92.90;;;;;;25593424;23;20095;-63
2023/09/24 14:12:25;;;;;;;0.17;0.10;;;16.90;92.50;;;;;;25592533;23;20004;-62
2023/09/24 14:22:26;;;;;;;1.00;0.30;;;17.00;91.00;;;;;;25565453;23;20009;-61
2023/09/24 14:32:28;;;;;;;0.47;0.30;;;16.50;90.00;;;;;;25591816;23;20016;-61
2023/09/24 14:42:30;;;;;;;0.75;0.22;;;15.50;96.40;;;;;;25591960;23;20020;-61
2023/09/24 14:52:32;;;;;;;0.68;0.30;;;15.00;97.40;;;;;;25563244;23;20036;-61
2023/09/24 15:02:33;;;;;;;1.30;0.32;;;14.60;98.90;;;;;;25563905;23;20013;-61
2023/09/24 15:12:35;;;;;;;1.77;0.57;;;14.10;98.60;;;;;;25590547;23;20001;-50
2023/09/24 15:22:37;;;;;;;1.05;0.50;;;13.40;99.90;;;;;;25589664;23;20015;-60
2023/09/24 15:32:39;;;;;;;0.73;0.32;;;13.00;99.90;;;;;;25563196;23;20013;-60
2023/09/24 15:42:42;;;;;;;0.70;0.30;;;13.00;99.90;;;;;;25562969;23;20013;-60
2023/09/24 15:52:44;;;;;;;2.00;0.40;;;12.60;99.90;;;;;;25589383;23;20001;-60
2023/09/24 16:02:46;;;;;;;0.80;0.43;;;11.80;99.90;;;;;;25589277;23;20055;-52
2023/09/24 16:12:49;;;;;;;1.73;0.68;;;11.10;99.90;;;;;;25588797;23;20495;-49
2023/09/24 16:22:51;;;;;;;2.28;0.40;;;10.70;99.90;;;;;;25561987;23;20005;-60
2023/09/24 16:32:52;;;;;;;1.63;0.30;;;10.30;99.90;;;;;;25589178;23;20032;-60
2023/09/24 16:42:54;;;;;;;0.95;0.50;;;10.10;99.90;;;;;;25589315;23;20009;-60
2023/09/24 16:52:57;;;;;;;0.73;0.40;;;9.90;99.90;;;;;;25589309;23;20433;-60
2023/09/24 17:02:59;;;;;;;0.82;0.50;;;9.60;99.90;;;;;;25588974;23;20005;-49
2023/09/24 17:13:01;;;;;;;0.90;0.50;;;9.50;99.90;;;;;;25588810;23;20005;-50
2023/09/24 17:23:03;;;;;;;1.25;0.73;;;9.30;99.90;;;;;;25589457;23;20004;-51
2023/09/24 17:33:04;;;;;;;7.93;0.63;;;9.10;99.90;;;;;;25595809;23;20016;-59
2023/09/24 17:43:06;;;;;;;1.40;0.98;;;8.90;99.90;;;;;;25595837;23;20009;-52
2023/09/24 17:53:08;;;;;;;3.08;1.50;;;8.70;99.90;;;;;;25595115;23;20005;-59
2023/09/24 18:03:10;;;;;;;4.10;2.20;;;8.50;99.90;;;;;;25594403;23;20012;-59
2023/09/24 18:13:12;;;;;;;4.25;2.17;;;8.70;99.90;;;;;;25594259;23;20292;-50
2023/09/24 18:23:13;;;;;;;5.45;2.63;;;8.40;99.90;;;;;;25567188;23;20028;-59
2023/09/24 18:33:16;;;;;;;5.20;2.38;;;8.10;99.90;;;;;;25593283;23;20013;-49
2023/09/24 18:43:18;;;;;;;4.32;2.45;;;8.10;99.90;;;;;;25592792;23;20016;-59
2023/09/24 18:53:26;;;;;;;3.78;2.58;;;8.00;99.90;;;;;;25592684;23;20008;-51
2023/09/24 19:03:28;;;;;;;4.32;2.47;;;8.10;99.90;;;;;;25592446;23;20012;-48
2023/09/24 19:13:30;;;;;;;5.50;2.80;;;8.00;99.90;;;;;;25591816;23;20005;-59
2023/09/24 19:23:32;;;;;;;6.85;3.10;;;7.90;99.90;;;;;;25591498;23;20005;-52
2023/09/24 19:33:37;;;;;;;5.20;3.13;;;7.70;99.90;;;;;;25591155;23;20013;-59
2023/09/24 19:43:39;;;;;;;8.32;3.35;;;7.80;99.90;;;;;;25590309;23;20444;-59
2023/09/24 19:53:41;;;;;;;7.30;3.75;;;7.70;99.90;;;;;;25590228;23;20059;-55
2023/09/24 20:03:43;;;;;;;6.60;4.10;;;7.90;99.90;;;;;;25589136;23;20012;-49
2023/09/24 20:13:50;;;;;;;8.35;3.83;;;7.80;99.90;;;;;;25589882;23;20051;-59
2023/09/24 20:23:52;;;;;;;7.63;4.10;;;7.70;99.90;;;;;;25604228;23;20433;-53
2023/09/24 20:33:54;;;;;;;11.07;5.03;;;7.80;99.90;;;;;;25589700;23;20009;-59
2023/09/24 20:43:56;;;;;;;3.22;1.92;;;7.70;99.90;;;;;;25589321;23;20515;-59
2023/09/24 20:53:58;;;;;;;4.00;1.65;;;7.60;99.90;;;;;;25588905;23;20068;-59
2023/09/24 21:04:01;;;;;;;2.22;1.05;;;7.60;99.90;;;;;;25595725;23;20012;-51
2023/09/24 21:14:03;;;;;;;1.67;0.80;;;7.50;99.90;;;;;;25596558;23;20005;-52
2023/09/24 21:24:05;;;;;;;3.55;1.45;;;7.70;99.90;;;;;;25596052;23;20002;-49
2023/09/24 21:34:08;;;;;;;3.30;1.10;;;7.40;99.90;;;;;;25595803;23;20017;-59
2023/09/24 21:44:10;;;;;;;2.05;1.30;;;7.30;99.90;;;;;;25595161;23;20071;-52
2023/09/24 21:54:12;;;;;;;2.38;1.45;;;7.80;99.90;;;;;;25595122;23;20449;-59
2023/09/24 22:04:13;;;;;;;2.80;1.73;;;7.70;99.90;;;;;;25594452;23;20407;-53
2023/09/24 22:14:15;;;;;;;2.95;1.80;;;7.70;99.90;;;;;;25594114;23;20036;-59
2023/09/24 22:24:17;;;;;;;2.40;1.35;;;7.50;99.90;;;;;;25593767;23;20508;-59
2023/09/24 22:34:19;;;;;;;3.47;1.70;;;7.90;99.90;;;;;;25593394;23;20005;-59
2023/09/24 22:44:20;;;;;;;2.95;1.70;;;8.00;99.90;;;;;;25593137;23;20005;-59
2023/09/24 22:54:22;;;;;;;2.13;1.08;;;8.40;99.90;;;;;;25566308;23;20012;-53
2023/09/24 23:04:24;;;;;;;4.05;1.35;;;8.20;99.90;;;;;;25592475;23;20272;-51
2023/09/24 23:14:26;;;;;;;3.05;1.75;;;8.20;99.90;;;;;;25591868;23;20005;-52
2023/09/24 23:24:27;;;;;;;3.47;2.22;;;8.10;99.90;;;;;;25590868;23;20013;-59
2023/09/24 23:34:29;;;;;;;3.17;2.17;;;8.00;99.90;;;;;;25591076;23;20004;-59
2023/09/24 23:44:31;;;;;;;4.15;1.38;;;7.90;99.90;;;;;;25590655;23;20020;-59
2023/09/24 23:54:33;;;;;;;2.55;0.80;;;7.50;99.90;;;;;;25590443;23;20009;-59
